sensor_id;sensor_type;location;lat;lon;timestamp;P1;durP1;ratioP1;P2;durP2;ratioP2
70558;SDS011;58108;48.094;11.838;2023-05-25T00:01:53;11.07;;;3.40;;
70558;SDS011;58108;48.094;11.838;2023-05-25T00:04:18;11.50;;;3.65;;
70558;SDS011;58108;48.094;11.838;2023-05-25T00:06:44;9.20;;;3.60;;
70558;SDS011;58108;48.094;11.838;2023-05-25T00:09:11;9.00;;;3.72;;
70558;SDS011;58108;48.094;11.838;2023-05-25T00:11:36;13.20;;;3.87;;
70558;SDS011;58108;48.094;11.838;2023-05-25T00:14:01;7.77;;;3.50;;
70558;SDS011;58108;48.094;11.838;2023-05-25T00:16:26;8.63;;;3.20;;
70558;SDS011;58108;48.094;11.838;2023-05-25T00:18:52;13.67;;;3.87;;
70558;SDS011;58108;48.094;11.838;2023-05-25T00:21:21;10.38;;;3.92;;
70558;SDS011;58108;48.094;11.838;2023-05-25T00:23:46;10.33;;;3.50;;
70558;SDS011;58108;48.094;11.838;2023-05-25T00:26:11;9.13;;;3.30;;
70558;SDS011;58108;48.094;11.838;2023-05-25T00:28:36;8.60;;;3.70;;
70558;SDS011;58108;48.094;11.838;2023-05-25T00:31:01;8.97;;;3.50;;
70558;SDS011;58108;48.094;11.838;2023-05-25T00:33:27;10.47;;;3.63;;
70558;SDS011;58108;48.094;11.838;2023-05-25T00:35:52;11.73;;;4.00;;
70558;SDS011;58108;48.094;11.838;2023-05-25T00:38:18;11.73;;;3.70;;
70558;SDS011;58108;48.094;11.838;2023-05-25T00:40:43;8.27;;;3.47;;
70558;SDS011;58108;48.094;11.838;2023-05-25T00:43:08;9.43;;;3.80;;
70558;SDS011;58108;48.094;11.838;2023-05-25T00:45:33;11.90;;;3.77;;
70558;SDS011;58108;48.094;11.838;2023-05-25T00:47:59;8.40;;;4.03;;
70558;SDS011;58108;48.094;11.838;2023-05-25T00:50:46;9.32;;;3.60;;
70558;SDS011;58108;48.094;11.838;2023-05-25T00:53:11;7.05;;;3.60;;
70558;SDS011;58108;48.094;11.838;2023-05-25T00:55:43;8.90;;;3.70;;
70558;SDS011;58108;48.094;11.838;2023-05-25T00:58:10;7.80;;;3.30;;
70558;SDS011;58108;48.094;11.838;2023-05-25T01:00:35;9.43;;;4.20;;
70558;SDS011;58108;48.094;11.838;2023-05-25T01:03:03;12.63;;;4.10;;
70558;SDS011;58108;48.094;11.838;2023-05-25T01:05:31;10.48;;;4.82;;
70558;SDS011;58108;48.094;11.838;2023-05-25T01:07:58;10.38;;;4.68;;
70558;SDS011;58108;48.094;11.838;2023-05-25T01:10:25;13.73;;;5.43;;
70558;SDS011;58108;48.094;11.838;2023-05-25T01:12:52;11.17;;;4.90;;
70558;SDS011;58108;48.094;11.838;2023-05-25T01:15:19;11.07;;;4.63;;
70558;SDS011;58108;48.094;11.838;2023-05-25T01:17:44;9.27;;;4.37;;
70558;SDS011;58108;48.094;11.838;2023-05-25T01:20:09;9.20;;;4.60;;
70558;SDS011;58108;48.094;11.838;2023-05-25T01:22:39;11.30;;;4.85;;
70558;SDS011;58108;48.094;11.838;2023-05-25T01:25:17;11.80;;;5.27;;
70558;SDS011;58108;48.094;11.838;2023-05-25T01:27:46;12.63;;;5.60;;
70558;SDS011;58108;48.094;11.838;2023-05-25T01:30:13;12.40;;;5.70;;
70558;SDS011;58108;48.094;11.838;2023-05-25T01:32:41;13.05;;;5.80;;
70558;SDS011;58108;48.094;11.838;2023-05-25T01:35:06;16.20;;;5.57;;
70558;SDS011;58108;48.094;11.838;2023-05-25T01:37:32;12.50;;;5.63;;
70558;SDS011;58108;48.094;11.838;2023-05-25T01:40:01;13.20;;;6.10;;
70558;SDS011;58108;48.094;11.838;2023-05-25T01:42:26;12.60;;;5.20;;
70558;SDS011;58108;48.094;11.838;2023-05-25T01:44:52;14.13;;;5.87;;
70558;SDS011;58108;48.094;11.838;2023-05-25T01:47:28;13.70;;;5.90;;
70558;SDS011;58108;48.094;11.838;2023-05-25T01:50:06;15.75;;;6.22;;
70558;SDS011;58108;48.094;11.838;2023-05-25T01:52:37;13.97;;;6.03;;
70558;SDS011;58108;48.094;11.838;2023-05-25T01:55:05;12.68;;;6.00;;
70558;SDS011;58108;48.094;11.838;2023-05-25T01:57:32;15.00;;;6.57;;
70558;SDS011;58108;48.094;11.838;2023-05-25T01:59:59;14.88;;;6.55;;
70558;SDS011;58108;48.094;11.838;2023-05-25T02:02:27;16.17;;;7.63;;
70558;SDS011;58108;48.094;11.838;2023-05-25T02:04:52;15.77;;;7.10;;
70558;SDS011;58108;48.094;11.838;2023-05-25T02:07:18;14.95;;;7.28;;
70558;SDS011;58108;48.094;11.838;2023-05-25T02:09:44;17.10;;;7.10;;
70558;SDS011;58108;48.094;11.838;2023-05-25T02:12:09;17.70;;;7.30;;
70558;SDS011;58108;48.094;11.838;2023-05-25T02:14:34;20.80;;;8.03;;
70558;SDS011;58108;48.094;11.838;2023-05-25T02:16:59;17.60;;;7.40;;
70558;SDS011;58108;48.094;11.838;2023-05-25T02:19:27;16.45;;;7.40;;
70558;SDS011;58108;48.094;11.838;2023-05-25T02:21:53;20.27;;;8.00;;
70558;SDS011;58108;48.094;11.838;2023-05-25T02:24:18;15.93;;;7.90;;
70558;SDS011;58108;48.094;11.838;2023-05-25T02:26:43;18.83;;;8.37;;
70558;SDS011;58108;48.094;11.838;2023-05-25T02:29:08;21.10;;;8.90;;
70558;SDS011;58108;48.094;11.838;2023-05-25T02:31:34;19.53;;;8.77;;
70558;SDS011;58108;48.094;11.838;2023-05-25T02:33:59;19.93;;;8.53;;
70558;SDS011;58108;48.094;11.838;2023-05-25T02:36:24;18.27;;;8.93;;
70558;SDS011;58108;48.094;11.838;2023-05-25T02:38:50;18.67;;;8.10;;
70558;SDS011;58108;48.094;11.838;2023-05-25T02:41:17;18.85;;;8.02;;
70558;SDS011;58108;48.094;11.838;2023-05-25T02:43:42;21.42;;;8.70;;
70558;SDS011;58108;48.094;11.838;2023-05-25T02:46:07;19.17;;;8.37;;
70558;SDS011;58108;48.094;11.838;2023-05-25T02:48:32;21.43;;;8.43;;
70558;SDS011;58108;48.094;11.838;2023-05-25T02:50:58;22.10;;;8.33;;
70558;SDS011;58108;48.094;11.838;2023-05-25T02:53:23;21.60;;;8.60;;
70558;SDS011;58108;48.094;11.838;2023-05-25T02:55:48;19.77;;;7.70;;
70558;SDS011;58108;48.094;11.838;2023-05-25T02:58:13;18.50;;;7.93;;
70558;SDS011;58108;48.094;11.838;2023-05-25T03:00:38;18.17;;;7.37;;
70558;SDS011;58108;48.094;11.838;2023-05-25T03:03:03;16.63;;;7.47;;
70558;SDS011;58108;48.094;11.838;2023-05-25T03:05:29;18.40;;;7.40;;
70558;SDS011;58108;48.094;11.838;2023-05-25T03:07:54;17.40;;;7.63;;
70558;SDS011;58108;48.094;11.838;2023-05-25T03:10:19;15.53;;;6.90;;
70558;SDS011;58108;48.094;11.838;2023-05-25T03:12:44;16.23;;;7.50;;
70558;SDS011;58108;48.094;11.838;2023-05-25T03:15:10;18.53;;;6.93;;
70558;SDS011;58108;48.094;11.838;2023-05-25T03:17:37;16.00;;;7.10;;
70558;SDS011;58108;48.094;11.838;2023-05-25T03:20:03;16.93;;;6.87;;
70558;SDS011;58108;48.094;11.838;2023-05-25T03:22:28;20.33;;;7.67;;
70558;SDS011;58108;48.094;11.838;2023-05-25T03:24:53;18.47;;;7.23;;
70558;SDS011;58108;48.094;11.838;2023-05-25T03:27:18;16.00;;;7.87;;
70558;SDS011;58108;48.094;11.838;2023-05-25T03:29:43;18.10;;;7.60;;
70558;SDS011;58108;48.094;11.838;2023-05-25T03:32:09;18.07;;;6.80;;
70558;SDS011;58108;48.094;11.838;2023-05-25T03:34:34;16.23;;;6.30;;
70558;SDS011;58108;48.094;11.838;2023-05-25T03:37:01;15.57;;;6.63;;
70558;SDS011;58108;48.094;11.838;2023-05-25T03:39:26;15.17;;;6.90;;
70558;SDS011;58108;48.094;11.838;2023-05-25T03:41:51;19.10;;;7.20;;
70558;SDS011;58108;48.094;11.838;2023-05-25T03:44:16;16.40;;;7.13;;
70558;SDS011;58108;48.094;11.838;2023-05-25T03:46:41;16.80;;;7.47;;
70558;SDS011;58108;48.094;11.838;2023-05-25T03:49:07;16.90;;;6.70;;
70558;SDS011;58108;48.094;11.838;2023-05-25T03:51:37;15.87;;;6.90;;
70558;SDS011;58108;48.094;11.838;2023-05-25T03:54:02;13.80;;;6.30;;
70558;SDS011;58108;48.094;11.838;2023-05-25T03:56:27;14.53;;;6.30;;
70558;SDS011;58108;48.094;11.838;2023-05-25T03:58:53;14.83;;;6.57;;
70558;SDS011;58108;48.094;11.838;2023-05-25T04:01:18;17.10;;;6.85;;
70558;SDS011;58108;48.094;11.838;2023-05-25T04:03:44;13.67;;;6.60;;
70558;SDS011;58108;48.094;11.838;2023-05-25T04:06:09;15.17;;;6.97;;
70558;SDS011;58108;48.094;11.838;2023-05-25T04:08:35;14.40;;;6.78;;
70558;SDS011;58108;48.094;11.838;2023-05-25T04:11:00;13.43;;;6.17;;
70558;SDS011;58108;48.094;11.838;2023-05-25T04:13:26;16.83;;;6.50;;
70558;SDS011;58108;48.094;11.838;2023-05-25T04:15:51;15.13;;;6.93;;
70558;SDS011;58108;48.094;11.838;2023-05-25T04:18:16;16.80;;;6.43;;
70558;SDS011;58108;48.094;11.838;2023-05-25T04:20:41;15.90;;;6.57;;
70558;SDS011;58108;48.094;11.838;2023-05-25T04:23:06;17.03;;;6.73;;
70558;SDS011;58108;48.094;11.838;2023-05-25T04:25:32;14.37;;;6.33;;
70558;SDS011;58108;48.094;11.838;2023-05-25T04:27:57;13.90;;;6.20;;
70558;SDS011;58108;48.094;11.838;2023-05-25T04:30:22;15.70;;;6.10;;
70558;SDS011;58108;48.094;11.838;2023-05-25T04:32:47;14.83;;;6.40;;
70558;SDS011;58108;48.094;11.838;2023-05-25T04:35:12;12.17;;;5.87;;
70558;SDS011;58108;48.094;11.838;2023-05-25T04:37:40;13.80;;;6.00;;
70558;SDS011;58108;48.094;11.838;2023-05-25T04:40:06;16.37;;;6.37;;
70558;SDS011;58108;48.094;11.838;2023-05-25T04:42:38;16.17;;;6.80;;
70558;SDS011;58108;48.094;11.838;2023-05-25T04:45:03;14.10;;;6.65;;
70558;SDS011;58108;48.094;11.838;2023-05-25T04:47:29;14.70;;;6.47;;
70558;SDS011;58108;48.094;11.838;2023-05-25T04:49:54;15.60;;;6.43;;
70558;SDS011;58108;48.094;11.838;2023-05-25T04:52:20;14.83;;;7.20;;
70558;SDS011;58108;48.094;11.838;2023-05-25T04:54:45;15.80;;;6.67;;
70558;SDS011;58108;48.094;11.838;2023-05-25T04:57:10;16.67;;;7.00;;
70558;SDS011;58108;48.094;11.838;2023-05-25T04:59:35;14.33;;;5.97;;
70558;SDS011;58108;48.094;11.838;2023-05-25T05:02:01;13.77;;;6.53;;
70558;SDS011;58108;48.094;11.838;2023-05-25T05:04:26;15.43;;;6.60;;
70558;SDS011;58108;48.094;11.838;2023-05-25T05:06:51;15.27;;;6.30;;
70558;SDS011;58108;48.094;11.838;2023-05-25T05:09:16;13.93;;;6.67;;
70558;SDS011;58108;48.094;11.838;2023-05-25T05:11:41;14.63;;;6.67;;
70558;SDS011;58108;48.094;11.838;2023-05-25T05:14:06;16.03;;;6.67;;
70558;SDS011;58108;48.094;11.838;2023-05-25T05:16:32;16.20;;;6.93;;
70558;SDS011;58108;48.094;11.838;2023-05-25T05:18:59;16.73;;;7.10;;
70558;SDS011;58108;48.094;11.838;2023-05-25T05:21:24;18.17;;;7.50;;
70558;SDS011;58108;48.094;11.838;2023-05-25T05:23:49;14.43;;;6.90;;
70558;SDS011;58108;48.094;11.838;2023-05-25T05:26:15;17.30;;;7.20;;
70558;SDS011;58108;48.094;11.838;2023-05-25T05:28:40;18.27;;;6.97;;
70558;SDS011;58108;48.094;11.838;2023-05-25T05:31:05;20.90;;;9.23;;
70558;SDS011;58108;48.094;11.838;2023-05-25T05:33:31;17.87;;;8.27;;
70558;SDS011;58108;48.094;11.838;2023-05-25T05:35:56;18.37;;;7.80;;
70558;SDS011;58108;48.094;11.838;2023-05-25T05:38:21;18.80;;;7.83;;
70558;SDS011;58108;48.094;11.838;2023-05-25T05:40:46;17.57;;;7.40;;
70558;SDS011;58108;48.094;11.838;2023-05-25T05:43:12;14.87;;;7.13;;
70558;SDS011;58108;48.094;11.838;2023-05-25T05:45:37;16.58;;;7.18;;
70558;SDS011;58108;48.094;11.838;2023-05-25T05:48:03;21.03;;;7.07;;
70558;SDS011;58108;48.094;11.838;2023-05-25T05:50:33;18.20;;;7.32;;
70558;SDS011;58108;48.094;11.838;2023-05-25T05:52:59;17.07;;;7.60;;
70558;SDS011;58108;48.094;11.838;2023-05-25T05:55:24;15.70;;;7.10;;
70558;SDS011;58108;48.094;11.838;2023-05-25T05:57:49;15.00;;;7.47;;
70558;SDS011;58108;48.094;11.838;2023-05-25T06:00:15;16.17;;;7.60;;
70558;SDS011;58108;48.094;11.838;2023-05-25T06:02:40;19.77;;;7.70;;
70558;SDS011;58108;48.094;11.838;2023-05-25T06:05:06;15.77;;;7.60;;
70558;SDS011;58108;48.094;11.838;2023-05-25T06:07:31;16.27;;;7.23;;
70558;SDS011;58108;48.094;11.838;2023-05-25T06:09:59;16.17;;;7.35;;
70558;SDS011;58108;48.094;11.838;2023-05-25T06:12:24;16.03;;;7.80;;
70558;SDS011;58108;48.094;11.838;2023-05-25T06:14:49;16.63;;;7.33;;
70558;SDS011;58108;48.094;11.838;2023-05-25T06:17:16;18.77;;;7.70;;
70558;SDS011;58108;48.094;11.838;2023-05-25T06:19:41;17.30;;;7.57;;
70558;SDS011;58108;48.094;11.838;2023-05-25T06:22:06;16.90;;;8.00;;
70558;SDS011;58108;48.094;11.838;2023-05-25T06:24:31;15.23;;;7.30;;
70558;SDS011;58108;48.094;11.838;2023-05-25T06:26:56;16.77;;;8.37;;
70558;SDS011;58108;48.094;11.838;2023-05-25T06:29:22;15.80;;;7.70;;
70558;SDS011;58108;48.094;11.838;2023-05-25T06:31:47;17.70;;;8.10;;
70558;SDS011;58108;48.094;11.838;2023-05-25T06:34:12;15.90;;;7.90;;
70558;SDS011;58108;48.094;11.838;2023-05-25T06:36:37;16.67;;;7.60;;
70558;SDS011;58108;48.094;11.838;2023-05-25T06:39:03;18.43;;;8.60;;
70558;SDS011;58108;48.094;11.838;2023-05-25T06:41:28;16.73;;;7.87;;
70558;SDS011;58108;48.094;11.838;2023-05-25T06:43:54;19.92;;;8.95;;
70558;SDS011;58108;48.094;11.838;2023-05-25T06:46:19;17.63;;;8.27;;
70558;SDS011;58108;48.094;11.838;2023-05-25T06:48:45;16.10;;;7.97;;
70558;SDS011;58108;48.094;11.838;2023-05-25T06:51:11;17.90;;;7.63;;
70558;SDS011;58108;48.094;11.838;2023-05-25T06:53:36;18.40;;;7.53;;
70558;SDS011;58108;48.094;11.838;2023-05-25T06:56:03;18.15;;;8.48;;
70558;SDS011;58108;48.094;11.838;2023-05-25T06:58:28;15.37;;;7.43;;
70558;SDS011;58108;48.094;11.838;2023-05-25T07:00:53;15.87;;;6.80;;
70558;SDS011;58108;48.094;11.838;2023-05-25T07:03:19;16.03;;;7.60;;
70558;SDS011;58108;48.094;11.838;2023-05-25T07:05:44;16.13;;;7.20;;
70558;SDS011;58108;48.094;11.838;2023-05-25T07:08:09;14.73;;;7.50;;
70558;SDS011;58108;48.094;11.838;2023-05-25T07:10:34;17.60;;;8.07;;
70558;SDS011;58108;48.094;11.838;2023-05-25T07:12:59;17.40;;;8.03;;
70558;SDS011;58108;48.094;11.838;2023-05-25T07:15:25;17.77;;;8.40;;
70558;SDS011;58108;48.094;11.838;2023-05-25T07:17:50;17.03;;;7.67;;
70558;SDS011;58108;48.094;11.838;2023-05-25T07:20:15;19.07;;;7.63;;
70558;SDS011;58108;48.094;11.838;2023-05-25T07:22:40;17.67;;;8.27;;
70558;SDS011;58108;48.094;11.838;2023-05-25T07:25:06;18.83;;;8.00;;
70558;SDS011;58108;48.094;11.838;2023-05-25T07:27:31;17.33;;;8.10;;
70558;SDS011;58108;48.094;11.838;2023-05-25T07:29:57;15.80;;;7.78;;
70558;SDS011;58108;48.094;11.838;2023-05-25T07:32:22;17.20;;;7.67;;
70558;SDS011;58108;48.094;11.838;2023-05-25T07:34:47;17.40;;;7.90;;
70558;SDS011;58108;48.094;11.838;2023-05-25T07:37:13;17.47;;;8.00;;
70558;SDS011;58108;48.094;11.838;2023-05-25T07:39:38;16.60;;;7.80;;
70558;SDS011;58108;48.094;11.838;2023-05-25T07:42:04;13.65;;;7.57;;
70558;SDS011;58108;48.094;11.838;2023-05-25T07:44:29;15.77;;;7.43;;
70558;SDS011;58108;48.094;11.838;2023-05-25T07:46:55;16.23;;;7.50;;
70558;SDS011;58108;48.094;11.838;2023-05-25T07:49:20;13.97;;;6.93;;
70558;SDS011;58108;48.094;11.838;2023-05-25T07:51:45;16.13;;;7.27;;
70558;SDS011;58108;48.094;11.838;2023-05-25T07:54:10;15.60;;;6.70;;
70558;SDS011;58108;48.094;11.838;2023-05-25T07:56:36;15.00;;;6.80;;
70558;SDS011;58108;48.094;11.838;2023-05-25T07:59:01;15.48;;;7.40;;
70558;SDS011;58108;48.094;11.838;2023-05-25T08:01:27;17.77;;;7.77;;
70558;SDS011;58108;48.094;11.838;2023-05-25T08:03:52;14.27;;;6.83;;
70558;SDS011;58108;48.094;11.838;2023-05-25T08:06:17;14.90;;;7.17;;
70558;SDS011;58108;48.094;11.838;2023-05-25T08:08:43;14.93;;;6.90;;
70558;SDS011;58108;48.094;11.838;2023-05-25T08:11:11;14.10;;;6.57;;
70558;SDS011;58108;48.094;11.838;2023-05-25T08:13:36;15.90;;;7.07;;
70558;SDS011;58108;48.094;11.838;2023-05-25T08:16:02;16.10;;;6.65;;
70558;SDS011;58108;48.094;11.838;2023-05-25T08:18:27;13.67;;;6.70;;
70558;SDS011;58108;48.094;11.838;2023-05-25T08:20:52;13.30;;;6.03;;
70558;SDS011;58108;48.094;11.838;2023-05-25T08:23:17;15.30;;;6.77;;
70558;SDS011;58108;48.094;11.838;2023-05-25T08:25:42;13.20;;;5.95;;
70558;SDS011;58108;48.094;11.838;2023-05-25T08:28:08;11.47;;;5.77;;
70558;SDS011;58108;48.094;11.838;2023-05-25T08:30:33;11.60;;;6.00;;
70558;SDS011;58108;48.094;11.838;2023-05-25T08:32:58;12.67;;;5.77;;
70558;SDS011;58108;48.094;11.838;2023-05-25T08:35:23;13.13;;;6.70;;
70558;SDS011;58108;48.094;11.838;2023-05-25T08:37:49;13.97;;;5.93;;
70558;SDS011;58108;48.094;11.838;2023-05-25T08:40:14;13.13;;;6.37;;
70558;SDS011;58108;48.094;11.838;2023-05-25T08:42:41;14.05;;;5.95;;
70558;SDS011;58108;48.094;11.838;2023-05-25T08:45:06;13.00;;;6.07;;
70558;SDS011;58108;48.094;11.838;2023-05-25T08:47:32;13.23;;;6.13;;
70558;SDS011;58108;48.094;11.838;2023-05-25T08:49:58;13.43;;;6.45;;
70558;SDS011;58108;48.094;11.838;2023-05-25T08:52:24;11.10;;;5.93;;
70558;SDS011;58108;48.094;11.838;2023-05-25T08:54:52;13.27;;;5.80;;
70558;SDS011;58108;48.094;11.838;2023-05-25T08:57:19;10.88;;;4.60;;
70558;SDS011;58108;48.094;11.838;2023-05-25T09:00:02;11.63;;;5.97;;
70558;SDS011;58108;48.094;11.838;2023-05-25T09:02:36;13.15;;;5.93;;
70558;SDS011;58108;48.094;11.838;2023-05-25T09:05:03;12.02;;;5.82;;
70558;SDS011;58108;48.094;11.838;2023-05-25T09:07:28;12.57;;;5.87;;
70558;SDS011;58108;48.094;11.838;2023-05-25T09:09:54;11.60;;;5.40;;
70558;SDS011;58108;48.094;11.838;2023-05-25T09:12:20;13.15;;;6.30;;
70558;SDS011;58108;48.094;11.838;2023-05-25T09:14:46;11.80;;;5.80;;
70558;SDS011;58108;48.094;11.838;2023-05-25T09:17:15;13.30;;;6.43;;
70558;SDS011;58108;48.094;11.838;2023-05-25T09:19:41;11.18;;;5.60;;
70558;SDS011;58108;48.094;11.838;2023-05-25T09:22:06;12.33;;;6.00;;
70558;SDS011;58108;48.094;11.838;2023-05-25T09:24:31;11.57;;;5.57;;
70558;SDS011;58108;48.094;11.838;2023-05-25T09:26:56;12.57;;;6.17;;
70558;SDS011;58108;48.094;11.838;2023-05-25T09:29:23;11.05;;;6.03;;
70558;SDS011;58108;48.094;11.838;2023-05-25T09:31:48;11.10;;;5.80;;
70558;SDS011;58108;48.094;11.838;2023-05-25T09:34:13;12.27;;;6.03;;
70558;SDS011;58108;48.094;11.838;2023-05-25T09:36:42;11.30;;;5.73;;
70558;SDS011;58108;48.094;11.838;2023-05-25T09:39:10;13.10;;;5.65;;
70558;SDS011;58108;48.094;11.838;2023-05-25T09:41:36;8.95;;;5.15;;
70558;SDS011;58108;48.094;11.838;2023-05-25T09:44:03;9.20;;;5.30;;
70558;SDS011;58108;48.094;11.838;2023-05-25T09:46:28;10.90;;;5.22;;
70558;SDS011;58108;48.094;11.838;2023-05-25T09:48:53;10.17;;;5.87;;
70558;SDS011;58108;48.094;11.838;2023-05-25T09:51:19;11.05;;;5.85;;
70558;SDS011;58108;48.094;11.838;2023-05-25T09:53:45;10.27;;;5.27;;
70558;SDS011;58108;48.094;11.838;2023-05-25T09:56:11;11.13;;;5.90;;
70558;SDS011;58108;48.094;11.838;2023-05-25T09:58:36;9.20;;;5.00;;
70558;SDS011;58108;48.094;11.838;2023-05-25T10:01:01;8.63;;;5.13;;
70558;SDS011;58108;48.094;11.838;2023-05-25T10:03:28;9.63;;;5.57;;
70558;SDS011;58108;48.094;11.838;2023-05-25T10:05:53;11.33;;;5.90;;
70558;SDS011;58108;48.094;11.838;2023-05-25T10:08:19;11.17;;;6.00;;
70558;SDS011;58108;48.094;11.838;2023-05-25T10:10:45;10.40;;;5.63;;
70558;SDS011;58108;48.094;11.838;2023-05-25T10:13:13;9.95;;;5.43;;
70558;SDS011;58108;48.094;11.838;2023-05-25T10:15:39;10.40;;;5.47;;
70558;SDS011;58108;48.094;11.838;2023-05-25T10:18:04;11.67;;;5.67;;
70558;SDS011;58108;48.094;11.838;2023-05-25T10:20:30;9.80;;;5.45;;
70558;SDS011;58108;48.094;11.838;2023-05-25T10:22:59;9.82;;;5.40;;
70558;SDS011;58108;48.094;11.838;2023-05-25T10:25:25;11.33;;;6.13;;
70558;SDS011;58108;48.094;11.838;2023-05-25T10:27:58;9.23;;;5.20;;
70558;SDS011;58108;48.094;11.838;2023-05-25T10:30:26;10.48;;;5.18;;
70558;SDS011;58108;48.094;11.838;2023-05-25T10:32:53;9.63;;;5.65;;
70558;SDS011;58108;48.094;11.838;2023-05-25T10:35:18;9.90;;;5.07;;
70558;SDS011;58108;48.094;11.838;2023-05-25T10:37:44;8.52;;;4.80;;
70558;SDS011;58108;48.094;11.838;2023-05-25T10:40:10;8.63;;;4.78;;
70558;SDS011;58108;48.094;11.838;2023-05-25T10:42:36;8.40;;;4.70;;
70558;SDS011;58108;48.094;11.838;2023-05-25T10:45:05;8.55;;;4.95;;
70558;SDS011;58108;48.094;11.838;2023-05-25T10:47:31;8.93;;;5.10;;
70558;SDS011;58108;48.094;11.838;2023-05-25T10:49:57;8.77;;;4.73;;
70558;SDS011;58108;48.094;11.838;2023-05-25T10:52:29;9.85;;;5.18;;
70558;SDS011;58108;48.094;11.838;2023-05-25T10:54:55;9.80;;;5.47;;
70558;SDS011;58108;48.094;11.838;2023-05-25T10:57:22;10.60;;;5.60;;
70558;SDS011;58108;48.094;11.838;2023-05-25T10:59:51;8.97;;;5.20;;
70558;SDS011;58108;48.094;11.838;2023-05-25T11:02:19;8.82;;;4.97;;
70558;SDS011;58108;48.094;11.838;2023-05-25T11:04:47;9.20;;;5.00;;
70558;SDS011;58108;48.094;11.838;2023-05-25T11:07:13;9.13;;;5.43;;
70558;SDS011;58108;48.094;11.838;2023-05-25T11:09:40;8.57;;;4.93;;
70558;SDS011;58108;48.094;11.838;2023-05-25T11:12:07;9.68;;;5.10;;
70558;SDS011;58108;48.094;11.838;2023-05-25T11:14:33;9.50;;;5.38;;
70558;SDS011;58108;48.094;11.838;2023-05-25T11:19:52;10.10;;;5.50;;
70558;SDS011;58108;48.094;11.838;2023-05-25T11:22:18;9.38;;;5.38;;
70558;SDS011;58108;48.094;11.838;2023-05-25T11:24:48;9.32;;;5.43;;
70558;SDS011;58108;48.094;11.838;2023-05-25T11:27:13;10.48;;;5.22;;
70558;SDS011;58108;48.094;11.838;2023-05-25T11:29:39;8.37;;;5.53;;
70558;SDS011;58108;48.094;11.838;2023-05-25T11:32:10;8.67;;;5.40;;
70558;SDS011;58108;48.094;11.838;2023-05-25T11:34:37;10.13;;;5.70;;
70558;SDS011;58108;48.094;11.838;2023-05-25T11:37:02;9.33;;;5.07;;
70558;SDS011;58108;48.094;11.838;2023-05-25T11:39:28;9.85;;;5.40;;
70558;SDS011;58108;48.094;11.838;2023-05-25T11:41:54;8.93;;;5.40;;
70558;SDS011;58108;48.094;11.838;2023-05-25T11:44:26;8.98;;;4.78;;
70558;SDS011;58108;48.094;11.838;2023-05-25T11:46:55;7.90;;;4.85;;
70558;SDS011;58108;48.094;11.838;2023-05-25T11:49:21;8.70;;;5.00;;
70558;SDS011;58108;48.094;11.838;2023-05-25T11:51:46;7.80;;;5.03;;
70558;SDS011;58108;48.094;11.838;2023-05-25T11:54:19;10.10;;;5.37;;
70558;SDS011;58108;48.094;11.838;2023-05-25T11:56:45;8.27;;;4.90;;
70558;SDS011;58108;48.094;11.838;2023-05-25T11:59:10;8.20;;;5.27;;
70558;SDS011;58108;48.094;11.838;2023-05-25T12:01:35;8.33;;;4.87;;
70558;SDS011;58108;48.094;11.838;2023-05-25T12:04:06;7.93;;;4.63;;
70558;SDS011;58108;48.094;11.838;2023-05-25T12:06:32;10.52;;;4.75;;
70558;SDS011;58108;48.094;11.838;2023-05-25T12:09:09;9.27;;;4.93;;
70558;SDS011;58108;48.094;11.838;2023-05-25T12:11:35;9.60;;;6.20;;
70558;SDS011;58108;48.094;11.838;2023-05-25T12:14:02;10.07;;;5.50;;
70558;SDS011;58108;48.094;11.838;2023-05-25T12:16:28;8.57;;;5.20;;
70558;SDS011;58108;48.094;11.838;2023-05-25T12:18:54;9.35;;;4.93;;
70558;SDS011;58108;48.094;11.838;2023-05-25T12:21:19;7.80;;;5.00;;
70558;SDS011;58108;48.094;11.838;2023-05-25T12:23:45;9.82;;;5.28;;
70558;SDS011;58108;48.094;11.838;2023-05-25T12:26:11;6.87;;;4.80;;
70558;SDS011;58108;48.094;11.838;2023-05-25T12:28:36;8.30;;;5.40;;
70558;SDS011;58108;48.094;11.838;2023-05-25T12:34:00;7.97;;;5.40;;
70558;SDS011;58108;48.094;11.838;2023-05-25T12:36:41;6.65;;;5.20;;
70558;SDS011;58108;48.094;11.838;2023-05-25T12:39:07;7.60;;;5.78;;
70558;SDS011;58108;48.094;11.838;2023-05-25T12:46:52;8.20;;;6.00;;
70558;SDS011;58108;48.094;11.838;2023-05-25T12:49:30;9.95;;;7.05;;
70558;SDS011;58108;48.094;11.838;2023-05-25T12:51:56;9.75;;;6.22;;
70558;SDS011;58108;48.094;11.838;2023-05-25T12:57:32;8.20;;;4.93;;
70558;SDS011;58108;48.094;11.838;2023-05-25T12:59:57;9.43;;;5.80;;
70558;SDS011;58108;48.094;11.838;2023-05-25T13:02:22;9.67;;;5.57;;
70558;SDS011;58108;48.094;11.838;2023-05-25T13:04:47;7.27;;;5.33;;
70558;SDS011;58108;48.094;11.838;2023-05-25T13:07:13;7.43;;;5.40;;
70558;SDS011;58108;48.094;11.838;2023-05-25T13:09:38;11.17;;;7.27;;
70558;SDS011;58108;48.094;11.838;2023-05-25T13:12:03;8.67;;;5.43;;
70558;SDS011;58108;48.094;11.838;2023-05-25T13:14:29;7.97;;;6.10;;
70558;SDS011;58108;48.094;11.838;2023-05-25T13:16:54;6.57;;;5.07;;
70558;SDS011;58108;48.094;11.838;2023-05-25T13:19:20;8.75;;;5.85;;
70558;SDS011;58108;48.094;11.838;2023-05-25T13:21:46;6.25;;;5.55;;
70558;SDS011;58108;48.094;11.838;2023-05-25T13:24:13;8.43;;;5.53;;
70558;SDS011;58108;48.094;11.838;2023-05-25T13:26:38;6.40;;;5.60;;
70558;SDS011;58108;48.094;11.838;2023-05-25T13:29:03;7.47;;;5.67;;
70558;SDS011;58108;48.094;11.838;2023-05-25T13:31:29;8.80;;;5.60;;
70558;SDS011;58108;48.094;11.838;2023-05-25T13:33:55;7.20;;;5.83;;
70558;SDS011;58108;48.094;11.838;2023-05-25T13:36:21;7.20;;;5.47;;
70558;SDS011;58108;48.094;11.838;2023-05-25T13:38:46;7.63;;;5.33;;
70558;SDS011;58108;48.094;11.838;2023-05-25T13:41:11;7.33;;;5.60;;
70558;SDS011;58108;48.094;11.838;2023-05-25T13:43:37;7.20;;;5.90;;
70558;SDS011;58108;48.094;11.838;2023-05-25T13:46:02;8.50;;;6.13;;
70558;SDS011;58108;48.094;11.838;2023-05-25T13:48:27;7.90;;;5.95;;
70558;SDS011;58108;48.094;11.838;2023-05-25T13:50:53;6.50;;;5.10;;
70558;SDS011;58108;48.094;11.838;2023-05-25T13:53:19;8.30;;;5.90;;
70558;SDS011;58108;48.094;11.838;2023-05-25T13:55:44;8.57;;;5.83;;
70558;SDS011;58108;48.094;11.838;2023-05-25T13:58:09;9.50;;;5.73;;
70558;SDS011;58108;48.094;11.838;2023-05-25T14:00:35;7.47;;;5.90;;
70558;SDS011;58108;48.094;11.838;2023-05-25T14:03:00;6.97;;;5.63;;
70558;SDS011;58108;48.094;11.838;2023-05-25T14:05:25;8.97;;;5.70;;
70558;SDS011;58108;48.094;11.838;2023-05-25T14:07:50;7.40;;;5.53;;
70558;SDS011;58108;48.094;11.838;2023-05-25T14:10:16;8.83;;;7.03;;
70558;SDS011;58108;48.094;11.838;2023-05-25T14:12:41;8.17;;;5.60;;
70558;SDS011;58108;48.094;11.838;2023-05-25T14:15:06;8.70;;;5.50;;
70558;SDS011;58108;48.094;11.838;2023-05-25T14:17:32;7.70;;;5.40;;
70558;SDS011;58108;48.094;11.838;2023-05-25T14:19:57;7.77;;;5.57;;
70558;SDS011;58108;48.094;11.838;2023-05-25T14:22:23;7.40;;;5.50;;
70558;SDS011;58108;48.094;11.838;2023-05-25T14:24:48;7.20;;;6.10;;
70558;SDS011;58108;48.094;11.838;2023-05-25T14:27:13;7.50;;;5.57;;
70558;SDS011;58108;48.094;11.838;2023-05-25T14:29:40;7.00;;;5.57;;
70558;SDS011;58108;48.094;11.838;2023-05-25T14:32:05;8.07;;;5.20;;
70558;SDS011;58108;48.094;11.838;2023-05-25T14:34:30;7.30;;;5.20;;